createdAt,value
2023-05-03T00:01:48.693Z,6.93
2023-05-03T00:04:20.239Z,5.05
2023-05-03T00:06:47.900Z,6.90
2023-05-03T00:09:15.374Z,5.13
2023-05-03T00:11:42.779Z,5.68
2023-05-03T00:14:10.116Z,7.28
2023-05-03T00:16:37.422Z,3.85
2023-05-03T00:19:04.991Z,8.07
2023-05-03T00:21:32.466Z,7.15
2023-05-03T00:23:59.844Z,6.75
2023-05-03T00:26:27.350Z,7.45
2023-05-03T00:28:54.862Z,8.65
2023-05-03T00:31:22.208Z,4.93
2023-05-03T00:33:49.558Z,4.80
2023-05-03T00:36:16.917Z,6.05
2023-05-03T00:38:44.404Z,7.35
2023-05-03T00:41:13.195Z,4.75
2023-05-03T00:43:40.647Z,7.57
2023-05-03T00:46:16.699Z,7.63
2023-05-03T00:48:49.705Z,8.52
2023-05-03T00:51:18.193Z,9.40
2023-05-03T00:53:45.541Z,5.07
2023-05-03T00:56:16.090Z,8.75
2023-05-03T00:58:43.528Z,5.65
2023-05-03T01:01:12.034Z,7.18
2023-05-03T01:03:42.209Z,6.45
2023-05-03T01:06:27.723Z,10.27
2023-05-03T01:09:08.168Z,6.00
2023-05-03T01:11:42.784Z,8.38
2023-05-03T01:14:23.663Z,8.15
2023-05-03T01:16:54.564Z,13.23
2023-05-03T01:19:38.846Z,6.85
2023-05-03T01:22:23.088Z,4.95
2023-05-03T01:24:52.945Z,6.43
2023-05-03T01:27:20.246Z,7.82
2023-05-03T01:29:47.890Z,7.00
2023-05-03T01:32:21.426Z,6.07
2023-05-03T01:34:55.255Z,3.78
2023-05-03T01:37:22.601Z,8.90
2023-05-03T01:39:52.489Z,10.15
2023-05-03T01:42:20.938Z,5.45
2023-05-03T01:44:48.980Z,5.23
2023-05-03T01:47:16.388Z,5.35
2023-05-03T01:49:43.754Z,7.25
2023-05-03T01:52:11.099Z,5.60
2023-05-03T01:54:38.488Z,6.32
2023-05-03T01:57:06.022Z,6.45
2023-05-03T01:59:33.364Z,6.50
2023-05-03T02:02:00.856Z,9.50
2023-05-03T02:04:28.361Z,8.52
2023-05-03T02:06:55.690Z,10.70
2023-05-03T02:09:24.119Z,5.35
2023-05-03T02:11:51.415Z,5.07
2023-05-03T02:14:18.734Z,10.65
2023-05-03T02:16:47.413Z,9.23
2023-05-03T02:19:14.836Z,8.13
2023-05-03T02:21:42.398Z,9.98
2023-05-03T02:24:09.893Z,5.05
2023-05-03T02:26:37.304Z,10.27
2023-05-03T02:29:04.928Z,7.50
2023-05-03T02:31:33.940Z,6.97
2023-05-03T02:34:02.077Z,9.68
2023-05-03T02:36:29.618Z,8.75
2023-05-03T02:39:00.650Z,6.10
2023-05-03T02:41:28.693Z,5.55
2023-05-03T02:46:27.110Z,8.27
2023-05-03T02:48:54.801Z,7.50
2023-05-03T02:51:22.322Z,6.80
2023-05-03T02:53:49.715Z,8.35
2023-05-03T02:56:17.180Z,6.80
2023-05-03T02:58:45.411Z,7.30
2023-05-03T03:01:13.108Z,9.95
2023-05-03T03:03:40.816Z,5.88
2023-05-03T03:06:09.329Z,6.65
2023-05-03T03:08:40.003Z,10.80
2023-05-03T03:11:08.792Z,6.47
2023-05-03T03:13:39.637Z,10.40
2023-05-03T03:16:10.722Z,5.53
2023-05-03T03:18:38.318Z,4.63
2023-05-03T03:21:06.380Z,9.40
2023-05-03T03:23:36.236Z,7.32
2023-05-03T03:26:04.010Z,8.68
2023-05-03T03:28:31.361Z,7.97
2023-05-03T03:31:01.840Z,4.82
2023-05-03T03:33:29.261Z,8.13
2023-05-03T03:36:03.641Z,5.07
2023-05-03T03:38:36.537Z,6.95
2023-05-03T03:41:08.524Z,5.10
2023-05-03T03:43:37.109Z,8.73
2023-05-03T03:46:08.097Z,7.72
2023-05-03T03:48:35.804Z,7.10
2023-05-03T03:51:03.072Z,7.63
2023-05-03T03:53:37.671Z,5.97
2023-05-03T03:56:05.853Z,5.75
2023-05-03T03:58:33.439Z,8.32
2023-05-03T04:01:02.943Z,7.38
2023-05-03T04:03:31.375Z,6.57
2023-05-03T04:05:59.415Z,9.45
2023-05-03T04:08:28.257Z,6.20
2023-05-03T04:10:55.784Z,5.75
2023-05-03T04:13:23.247Z,7.40
2023-05-03T04:15:55.883Z,5.03
2023-05-03T04:18:23.629Z,7.00
2023-05-03T04:20:52.548Z,5.90
2023-05-03T04:23:20.934Z,4.15
2023-05-03T04:25:48.973Z,8.75
2023-05-03T04:28:19.322Z,6.18
2023-05-03T04:30:49.310Z,10.88
2023-05-03T04:33:22.091Z,8.05
2023-05-03T04:35:51.931Z,5.30
2023-05-03T04:38:20.029Z,5.70
2023-05-03T04:40:47.557Z,7.25
2023-05-03T04:43:14.837Z,8.60
2023-05-03T04:45:45.760Z,6.55
2023-05-03T04:48:20.209Z,7.03
2023-05-03T04:50:47.615Z,6.40
2023-05-03T04:53:17.878Z,6.47
2023-05-03T04:55:51.085Z,7.90
2023-05-03T04:58:18.705Z,6.30
2023-05-03T05:00:49.067Z,6.28
2023-05-03T05:03:23.406Z,8.55
2023-05-03T05:05:52.666Z,8.73
2023-05-03T05:08:21.153Z,9.43
2023-05-03T05:10:53.623Z,10.23
2023-05-03T05:13:25.881Z,7.30
2023-05-03T05:15:53.246Z,9.68
2023-05-03T05:18:20.705Z,8.80
2023-05-03T05:20:49.787Z,9.77
2023-05-03T05:23:17.254Z,5.88
2023-05-03T05:25:47.352Z,9.25
2023-05-03T05:28:15.033Z,9.88
2023-05-03T05:30:42.722Z,8.55
2023-05-03T05:33:10.119Z,9.23
2023-05-03T05:35:37.897Z,6.28
2023-05-03T05:38:05.891Z,9.52
2023-05-03T05:40:34.462Z,12.70
2023-05-03T05:43:02.319Z,11.35
2023-05-03T05:45:34.547Z,8.50
2023-05-03T05:48:04.004Z,8.45
2023-05-03T05:50:31.698Z,6.63
2023-05-03T05:53:03.473Z,8.98
2023-05-03T05:55:36.385Z,5.63
2023-05-03T05:58:03.892Z,4.50
2023-05-03T06:00:39.032Z,7.55
2023-05-03T06:03:07.042Z,4.00
2023-05-03T06:05:35.282Z,3.92
2023-05-03T06:08:02.836Z,6.30
2023-05-03T06:10:30.277Z,5.13
2023-05-03T06:12:58.304Z,8.50
2023-05-03T06:15:27.430Z,10.52
2023-05-03T06:17:54.929Z,4.70
2023-05-03T06:22:52.771Z,6.15
2023-05-03T06:25:20.089Z,6.57
2023-05-03T06:27:49.854Z,7.20
2023-05-03T06:30:19.591Z,4.57
2023-05-03T06:32:48.832Z,4.30
2023-05-03T06:35:18.416Z,5.15
2023-05-03T06:37:46.062Z,5.57
2023-05-03T06:40:13.423Z,4.68
2023-05-03T06:42:40.798Z,5.32
2023-05-03T06:45:12.203Z,5.68
2023-05-03T06:47:42.448Z,7.53
2023-05-03T06:50:10.559Z,4.75
2023-05-03T06:52:38.472Z,10.02
2023-05-03T06:55:06.134Z,16.33
2023-05-03T06:57:33.436Z,8.98
2023-05-03T07:00:01.017Z,5.95
2023-05-03T07:02:28.956Z,4.18
2023-05-03T07:04:56.560Z,6.00
2023-05-03T07:07:23.790Z,7.50
2023-05-03T07:09:51.191Z,4.53
2023-05-03T07:12:18.493Z,7.88
2023-05-03T07:14:46.098Z,7.80
2023-05-03T07:17:13.394Z,5.95
2023-05-03T07:19:40.659Z,5.13
2023-05-03T07:22:07.973Z,5.93
2023-05-03T07:24:35.229Z,4.97
2023-05-03T07:27:03.327Z,10.65
2023-05-03T07:29:30.622Z,6.95
2023-05-03T07:31:57.863Z,5.40
2023-05-03T07:34:25.316Z,8.50
2023-05-03T07:36:52.599Z,6.53
2023-05-03T07:39:20.182Z,5.55
2023-05-03T07:41:47.430Z,5.75
2023-05-03T07:44:14.672Z,4.80
2023-05-03T07:46:41.982Z,5.20
2023-05-03T07:49:09.219Z,4.07
2023-05-03T07:51:37.023Z,4.72
2023-05-03T07:54:04.318Z,4.25
2023-05-03T07:56:31.988Z,6.95
2023-05-03T07:59:08.224Z,4.72
2023-05-03T08:01:36.220Z,6.50
2023-05-03T08:04:04.552Z,5.07
2023-05-03T08:06:32.587Z,4.55
2023-05-03T08:08:59.896Z,4.22
2023-05-03T08:11:30.000Z,7.75
2023-05-03T08:13:57.470Z,7.45
2023-05-03T08:16:25.064Z,3.92
2023-05-03T08:18:52.499Z,3.88
2023-05-03T08:21:20.182Z,7.25
2023-05-03T08:23:47.513Z,5.63
2023-05-03T08:26:15.599Z,4.85
2023-05-03T08:28:44.179Z,4.55
2023-05-03T08:31:11.992Z,6.07
2023-05-03T08:33:39.299Z,5.85
2023-05-03T08:36:07.052Z,4.63
2023-05-03T08:38:36.606Z,4.15
2023-05-03T08:41:10.846Z,4.28
2023-05-03T08:43:42.196Z,8.40
2023-05-03T08:46:12.474Z,4.05
2023-05-03T08:48:39.943Z,3.53
2023-05-03T08:51:07.648Z,4.72
2023-05-03T08:53:34.922Z,4.93
2023-05-03T08:56:06.208Z,3.85
2023-05-03T08:58:35.760Z,5.57
2023-05-03T09:01:06.618Z,4.95
2023-05-03T09:03:34.690Z,4.68
2023-05-03T09:06:02.298Z,4.65
2023-05-03T09:08:30.999Z,4.95
2023-05-03T09:11:02.380Z,4.13
2023-05-03T09:13:33.712Z,2.60
2023-05-03T09:16:02.323Z,4.28
2023-05-03T09:18:30.619Z,6.28
2023-05-03T09:20:59.100Z,4.63
2023-05-03T09:23:26.511Z,6.50
2023-05-03T09:25:53.782Z,4.35
2023-05-03T09:28:21.685Z,2.25
2023-05-03T09:30:49.550Z,4.35
2023-05-03T09:33:21.360Z,4.50
2023-05-03T09:35:59.049Z,5.82
2023-05-03T09:38:27.937Z,6.13
2023-05-03T09:40:55.282Z,4.88
2023-05-03T09:43:22.567Z,6.15
2023-05-03T09:45:50.187Z,4.70
2023-05-03T09:48:18.949Z,4.50
2023-05-03T09:50:46.672Z,3.55
2023-05-03T09:53:14.588Z,5.65
2023-05-03T09:55:41.854Z,7.43
2023-05-03T09:58:09.749Z,5.10
2023-05-03T10:00:41.801Z,4.80
2023-05-03T10:03:10.425Z,4.10
2023-05-03T10:05:47.850Z,3.83
2023-05-03T10:08:21.216Z,4.10
2023-05-03T10:10:52.006Z,4.07
2023-05-03T10:13:19.313Z,3.80
2023-05-03T10:15:48.587Z,5.75
2023-05-03T10:18:16.319Z,5.38
2023-05-03T10:20:46.161Z,5.32
2023-05-03T10:23:14.232Z,6.93
2023-05-03T10:26:02.052Z,3.85
2023-05-03T10:28:29.409Z,6.53
2023-05-03T10:30:56.816Z,4.78
2023-05-03T10:33:35.285Z,4.43
2023-05-03T10:36:10.717Z,4.75
2023-05-03T10:38:38.648Z,8.38
2023-05-03T10:41:07.172Z,4.28
2023-05-03T10:43:34.483Z,4.80
2023-05-03T10:46:06.001Z,5.95
2023-05-03T10:48:35.252Z,3.45
2023-05-03T10:51:24.920Z,5.53
2023-05-03T10:53:52.156Z,3.75
2023-05-03T10:56:19.414Z,6.63
2023-05-03T10:58:47.351Z,5.30
2023-05-03T11:01:16.344Z,5.25
2023-05-03T11:06:11.012Z,4.80
2023-05-03T11:08:38.551Z,4.47
2023-05-03T11:11:09.627Z,4.82
2023-05-03T11:13:37.461Z,4.07
2023-05-03T11:16:06.039Z,7.80
2023-05-03T11:18:33.494Z,3.70
2023-05-03T11:21:00.761Z,4.18
2023-05-03T11:23:28.975Z,4.43
2023-05-03T11:25:57.831Z,4.70
2023-05-03T11:30:52.545Z,5.18
2023-05-03T11:33:19.864Z,3.95
2023-05-03T11:35:47.370Z,9.15
2023-05-03T11:38:14.749Z,5.40
2023-05-03T11:40:42.134Z,4.25
2023-05-03T11:43:09.533Z,4.65
2023-05-03T11:45:44.354Z,9.82
2023-05-03T11:48:15.172Z,5.32
2023-05-03T11:50:57.946Z,5.60
2023-05-03T11:53:26.407Z,6.35
2023-05-03T11:55:54.878Z,5.38
2023-05-03T11:58:24.806Z,6.30
2023-05-03T12:00:53.203Z,6.85
2023-05-03T12:03:21.916Z,5.65
2023-05-03T12:05:52.409Z,6.20
2023-05-03T12:08:22.162Z,5.43
2023-05-03T12:10:53.038Z,9.20
2023-05-03T12:13:32.795Z,6.03
2023-05-03T12:16:11.774Z,7.57
2023-05-03T12:18:50.568Z,3.28
2023-05-03T12:23:50.564Z,7.97
2023-05-03T12:26:20.068Z,4.63
2023-05-03T12:28:50.032Z,10.27
2023-05-03T12:31:18.514Z,10.85
2023-05-03T12:34:00.386Z,6.88
2023-05-03T12:36:37.159Z,5.50
2023-05-03T12:39:09.408Z,7.45
2023-05-03T12:44:10.609Z,5.43
2023-05-03T12:46:39.139Z,6.15
2023-05-03T12:49:08.540Z,9.02
2023-05-03T12:51:42.051Z,5.32
2023-05-03T12:54:11.694Z,6.82
2023-05-03T12:56:40.744Z,5.53
2023-05-03T13:02:38.647Z,7.10
2023-05-03T13:07:00.356Z,6.53
2023-05-03T13:09:38.709Z,6.10
2023-05-03T13:12:18.122Z,6.80
2023-05-03T13:14:45.542Z,6.38
2023-05-03T13:17:13.502Z,7.32
2023-05-03T13:19:44.946Z,5.63
2023-05-03T13:22:12.771Z,5.82
2023-05-03T13:24:41.217Z,5.32
2023-05-03T13:27:09.360Z,5.65
2023-05-03T13:29:36.757Z,6.97
2023-05-03T13:32:04.181Z,5.80
2023-05-03T13:34:31.964Z,6.68
2023-05-03T13:36:59.235Z,6.50
2023-05-03T13:39:26.574Z,4.18
2023-05-03T13:41:53.938Z,4.70
2023-05-03T13:44:25.360Z,4.95
2023-05-03T13:46:53.141Z,11.43
2023-05-03T13:49:20.740Z,5.78
2023-05-03T13:51:48.572Z,7.53
2023-05-03T13:54:16.053Z,4.95
2023-05-03T13:56:43.582Z,5.68
2023-05-03T13:59:14.510Z,5.65
2023-05-03T14:01:43.456Z,4.25
2023-05-03T14:04:11.235Z,5.57
2023-05-03T14:06:41.115Z,6.82
2023-05-03T14:09:10.536Z,6.22
2023-05-03T14:11:38.353Z,4.47
2023-05-03T14:14:06.243Z,7.10
2023-05-03T14:16:41.043Z,5.60
2023-05-03T14:19:14.115Z,7.60
2023-05-03T14:21:45.321Z,6.53
2023-05-03T14:24:12.659Z,6.72
2023-05-03T14:26:40.134Z,7.10
2023-05-03T14:29:07.389Z,5.05
2023-05-03T14:31:36.577Z,6.38
2023-05-03T14:34:04.151Z,6.22
2023-05-03T14:36:36.133Z,5.47
2023-05-03T14:39:04.428Z,6.32
2023-05-03T14:41:34.902Z,6.40
2023-05-03T14:44:02.264Z,6.35
2023-05-03T14:46:29.617Z,8.13
2023-05-03T14:48:57.251Z,6.82
2023-05-03T14:51:24.780Z,5.80
2023-05-03T14:53:52.410Z,6.40
2023-05-03T14:56:19.696Z,8.15
2023-05-03T14:58:46.993Z,7.88
2023-05-03T15:01:18.181Z,8.68
2023-05-03T15:03:45.967Z,6.35
2023-05-03T15:06:13.266Z,9.90
2023-05-03T15:08:41.329Z,7.35
2023-05-03T15:11:08.920Z,9.75
2023-05-03T15:13:36.311Z,5.85
2023-05-03T15:16:03.660Z,6.28
2023-05-03T15:18:31.316Z,7.82
2023-05-03T15:20:58.617Z,6.55
2023-05-03T15:23:25.917Z,7.20
2023-05-03T15:25:53.242Z,6.75
2023-05-03T15:28:21.181Z,9.50
2023-05-03T15:30:48.420Z,7.30
2023-05-03T15:33:15.894Z,9.20
2023-05-03T15:35:43.165Z,8.00
2023-05-03T15:38:10.484Z,9.95
2023-05-03T15:40:37.812Z,9.75
2023-05-03T15:43:05.165Z,6.97
2023-05-03T15:45:32.797Z,7.43
2023-05-03T15:48:00.331Z,10.05
2023-05-03T15:50:27.699Z,6.20
2023-05-03T15:52:56.915Z,6.30
2023-05-03T15:57:52.222Z,9.20
2023-05-03T16:00:23.133Z,9.03
2023-05-03T16:02:50.555Z,8.85
2023-05-03T16:05:18.080Z,10.00
2023-05-03T16:07:45.627Z,7.07
2023-05-03T16:10:13.293Z,5.25
2023-05-03T16:12:40.960Z,7.03
2023-05-03T16:15:10.835Z,7.20
2023-05-03T16:17:44.746Z,6.93
2023-05-03T16:20:12.692Z,7.15
2023-05-03T16:22:40.008Z,7.75
2023-05-03T16:25:07.576Z,9.02
2023-05-03T16:27:35.007Z,6.88
2023-05-03T16:30:03.104Z,9.65
2023-05-03T16:32:30.684Z,6.82
2023-05-03T16:34:58.155Z,7.13
2023-05-03T16:37:25.451Z,8.65
2023-05-03T16:39:52.885Z,13.23
2023-05-03T16:42:20.338Z,10.50
2023-05-03T16:44:47.869Z,10.25
2023-05-03T16:47:15.807Z,6.47
2023-05-03T16:49:43.465Z,12.05
2023-05-03T16:52:10.969Z,9.50
2023-05-03T16:54:38.259Z,9.40
2023-05-03T16:57:05.535Z,19.08
2023-05-03T16:59:32.976Z,26.15
2023-05-03T17:02:01.214Z,22.58
2023-05-03T17:04:29.329Z,32.07
2023-05-03T17:06:56.685Z,34.45
2023-05-03T17:09:24.020Z,25.52
2023-05-03T17:11:51.429Z,37.92
2023-05-03T17:14:18.858Z,14.57
2023-05-03T17:16:46.852Z,10.23
2023-05-03T17:19:14.147Z,13.35
2023-05-03T17:21:41.565Z,11.13
2023-05-03T17:24:08.928Z,7.85
2023-05-03T17:26:36.402Z,11.32
2023-05-03T17:29:06.495Z,8.43
2023-05-03T17:31:34.175Z,8.38
2023-05-03T17:34:01.576Z,11.43
2023-05-03T17:36:29.399Z,9.80
2023-05-03T17:38:56.917Z,8.35
2023-05-03T17:41:24.476Z,10.13
2023-05-03T17:43:52.412Z,10.45
2023-05-03T17:46:21.104Z,10.70
2023-05-03T17:48:48.679Z,8.15
2023-05-03T17:51:16.324Z,8.32
2023-05-03T17:53:43.711Z,12.05
2023-05-03T17:56:15.016Z,8.32
2023-05-03T17:58:42.375Z,11.40
2023-05-03T18:01:10.939Z,8.52
2023-05-03T18:03:38.744Z,10.65
2023-05-03T18:06:08.774Z,8.45
2023-05-03T18:08:36.161Z,10.50
2023-05-03T18:11:03.516Z,9.77
2023-05-03T18:13:34.755Z,10.05
2023-05-03T18:16:02.123Z,11.25
2023-05-03T18:18:29.556Z,8.07
2023-05-03T18:21:00.051Z,11.75
2023-05-03T18:23:27.815Z,10.60
2023-05-03T18:25:55.188Z,7.88
2023-05-03T18:28:23.831Z,9.93
2023-05-03T18:30:53.297Z,10.05
2023-05-03T18:33:20.696Z,14.95
2023-05-03T18:35:51.682Z,18.83
2023-05-03T18:38:20.496Z,15.70
2023-05-03T18:40:51.312Z,11.98
2023-05-03T18:43:18.734Z,12.20
2023-05-03T18:45:46.020Z,9.48
2023-05-03T18:48:13.343Z,12.40
2023-05-03T18:50:43.045Z,13.82
2023-05-03T18:53:10.826Z,7.45
2023-05-03T18:55:38.102Z,11.05
2023-05-03T18:58:05.796Z,12.27
2023-05-03T19:00:33.150Z,11.40
2023-05-03T19:03:01.200Z,10.88
2023-05-03T19:05:28.935Z,10.93
2023-05-03T19:07:56.231Z,7.72
2023-05-03T19:10:23.481Z,12.15
2023-05-03T19:12:53.138Z,12.25
2023-05-03T19:15:20.716Z,10.68
2023-05-03T19:17:48.068Z,8.57
2023-05-03T19:20:17.423Z,9.65
2023-05-03T19:22:44.762Z,9.00
2023-05-03T19:25:12.062Z,8.90
2023-05-03T19:27:39.352Z,9.05
2023-05-03T19:30:07.400Z,9.65
2023-05-03T19:32:39.058Z,8.57
2023-05-03T19:35:11.101Z,9.27
2023-05-03T19:37:38.740Z,7.80
2023-05-03T19:40:06.879Z,9.95
2023-05-03T19:42:34.424Z,10.65
2023-05-03T19:45:03.622Z,10.40
2023-05-03T19:47:31.653Z,8.70
2023-05-03T19:49:59.151Z,11.23
2023-05-03T19:52:26.503Z,9.73
2023-05-03T19:54:53.970Z,10.00
2023-05-03T19:57:21.196Z,8.00
2023-05-03T19:59:48.763Z,9.63
2023-05-03T20:02:16.554Z,10.02
2023-05-03T20:04:43.840Z,9.07
2023-05-03T20:07:11.327Z,10.68
2023-05-03T20:09:38.681Z,12.20
2023-05-03T20:12:06.221Z,9.45
2023-05-03T20:14:33.569Z,9.45
2023-05-03T20:17:01.455Z,9.20
2023-05-03T20:19:28.952Z,11.27
2023-05-03T20:21:56.504Z,11.30
2023-05-03T20:24:23.945Z,11.57
2023-05-03T20:26:51.533Z,13.40
2023-05-03T20:29:19.094Z,11.32
2023-05-03T20:31:48.384Z,13.43
2023-05-03T20:34:15.983Z,9.52
2023-05-03T20:36:43.350Z,9.13
2023-05-03T20:39:11.302Z,10.10
2023-05-03T20:41:39.184Z,10.20
2023-05-03T20:44:06.542Z,9.13
2023-05-03T20:46:35.133Z,10.65
2023-05-03T20:49:02.510Z,8.27
2023-05-03T20:51:29.888Z,10.70
2023-05-03T20:53:57.255Z,9.00
2023-05-03T20:56:24.526Z,8.23
2023-05-03T20:58:51.826Z,9.02
2023-05-03T21:01:19.737Z,7.65
2023-05-03T21:03:47.208Z,10.40
2023-05-03T21:06:14.835Z,12.48
2023-05-03T21:08:42.514Z,9.40
2023-05-03T21:11:09.886Z,9.82
2023-05-03T21:13:37.204Z,9.60
2023-05-03T21:16:04.848Z,9.02
2023-05-03T21:18:34.679Z,10.20
2023-05-03T21:21:02.156Z,8.32
2023-05-03T21:23:29.775Z,11.90
2023-05-03T21:25:57.221Z,11.32
2023-05-03T21:28:24.567Z,8.20
2023-05-03T21:30:51.901Z,9.48
2023-05-03T21:33:19.362Z,11.00
2023-05-03T21:35:46.707Z,11.38
2023-05-03T21:38:15.416Z,10.32
2023-05-03T21:40:43.159Z,10.07
2023-05-03T21:43:10.890Z,9.00
2023-05-03T21:45:38.216Z,11.68
2023-05-03T21:48:06.481Z,9.18
2023-05-03T21:50:33.877Z,11.93
2023-05-03T21:53:01.248Z,9.88
2023-05-03T21:55:29.694Z,13.13
2023-05-03T21:57:57.015Z,17.45
2023-05-03T22:00:25.165Z,10.85
2023-05-03T22:02:52.913Z,11.60
2023-05-03T22:05:20.352Z,10.40
2023-05-03T22:07:48.615Z,10.45
2023-05-03T22:10:16.389Z,10.60
2023-05-03T22:12:43.858Z,13.07
2023-05-03T22:15:11.954Z,9.00
2023-05-03T22:17:39.315Z,8.65
2023-05-03T22:20:07.556Z,13.77
2023-05-03T22:22:35.287Z,10.73
2023-05-03T22:25:02.966Z,9.68
2023-05-03T22:27:30.568Z,10.45
2023-05-03T22:29:57.864Z,11.02
2023-05-03T22:32:25.365Z,8.15
2023-05-03T22:34:52.777Z,9.18
2023-05-03T22:37:20.394Z,13.43
2023-05-03T22:39:47.740Z,8.75
2023-05-03T22:42:16.174Z,11.75
2023-05-03T22:44:43.642Z,10.43
2023-05-03T22:47:11.792Z,11.07
2023-05-03T22:49:39.373Z,10.07
2023-05-03T22:52:09.070Z,11.80
2023-05-03T22:54:59.325Z,9.73
2023-05-03T22:57:28.187Z,16.60
2023-05-03T22:59:56.757Z,10.63
2023-05-03T23:02:24.231Z,13.40
2023-05-03T23:04:51.852Z,10.52
2023-05-03T23:07:22.212Z,11.32
2023-05-03T23:09:49.756Z,12.25
2023-05-03T23:12:17.483Z,11.93
2023-05-03T23:14:46.128Z,10.68
2023-05-03T23:17:13.840Z,11.27
2023-05-03T23:19:41.183Z,11.57
2023-05-03T23:22:09.074Z,9.90
2023-05-03T23:24:36.798Z,11.05
2023-05-03T23:27:04.142Z,11.73
2023-05-03T23:29:32.109Z,10.48
2023-05-03T23:31:59.720Z,14.45
2023-05-03T23:34:27.686Z,12.35
2023-05-03T23:36:55.056Z,14.48
2023-05-03T23:39:22.469Z,10.95
2023-05-03T23:41:50.040Z,13.15
2023-05-03T23:44:17.490Z,16.15
2023-05-03T23:46:45.172Z,12.93
2023-05-03T23:49:15.689Z,16.10
2023-05-03T23:51:43.132Z,12.60
2023-05-03T23:54:10.705Z,12.07
2023-05-03T23:56:38.061Z,11.88
2023-05-03T23:59:14.881Z,13.73
